sensor_id;sensor_type;location;lat;lon;timestamp;temperature;humidity
21035;DHT22;10676;50.848;3.272;2023-10-13T00:00:38;18.20;99.90
21035;DHT22;10676;50.848;3.272;2023-10-13T00:03:07;18.20;99.90
21035;DHT22;10676;50.848;3.272;2023-10-13T00:05:41;18.20;99.90
21035;DHT22;10676;50.848;3.272;2023-10-13T00:08:09;18.20;99.90
21035;DHT22;10676;50.848;3.272;2023-10-13T00:10:35;18.20;99.90
21035;DHT22;10676;50.848;3.272;2023-10-13T00:13:01;18.20;99.90
21035;DHT22;10676;50.848;3.272;2023-10-13T00:15:48;18.20;99.90
21035;DHT22;10676;50.848;3.272;2023-10-13T00:18:30;18.20;99.90
21035;DHT22;10676;50.848;3.272;2023-10-13T00:21:00;18.20;99.90
21035;DHT22;10676;50.848;3.272;2023-10-13T00:23:26;18.20;99.90
21035;DHT22;10676;50.848;3.272;2023-10-13T00:25:54;18.20;99.90
21035;DHT22;10676;50.848;3.272;2023-10-13T00:28:27;18.20;99.90
21035;DHT22;10676;50.848;3.272;2023-10-13T00:31:01;18.20;99.90
21035;DHT22;10676;50.848;3.272;2023-10-13T00:33:36;18.20;99.90
21035;DHT22;10676;50.848;3.272;2023-10-13T00:36:03;18.20;99.90
21035;DHT22;10676;50.848;3.272;2023-10-13T00:38:30;18.30;99.90
21035;DHT22;10676;50.848;3.272;2023-10-13T00:40:56;18.20;99.90
21035;DHT22;10676;50.848;3.272;2023-10-13T00:43:28;18.30;99.90
21035;DHT22;10676;50.848;3.272;2023-10-13T00:46:00;18.30;99.90
21035;DHT22;10676;50.848;3.272;2023-10-13T00:48:30;18.30;99.90
21035;DHT22;10676;50.848;3.272;2023-10-13T00:51:04;18.30;99.90
21035;DHT22;10676;50.848;3.272;2023-10-13T00:53:33;18.40;99.90
21035;DHT22;10676;50.848;3.272;2023-10-13T00:56:01;18.40;99.90
21035;DHT22;10676;50.848;3.272;2023-10-13T00:58:36;18.40;99.90
21035;DHT22;10676;50.848;3.272;2023-10-13T01:01:05;18.40;99.90
21035;DHT22;10676;50.848;3.272;2023-10-13T01:03:48;18.50;99.90
21035;DHT22;10676;50.848;3.272;2023-10-13T01:06:17;18.50;99.90
21035;DHT22;10676;50.848;3.272;2023-10-13T01:08:46;18.50;99.90
21035;DHT22;10676;50.848;3.272;2023-10-13T01:11:19;18.50;99.90
21035;DHT22;10676;50.848;3.272;2023-10-13T01:13:49;18.50;99.90
21035;DHT22;10676;50.848;3.272;2023-10-13T01:16:20;18.50;99.90
21035;DHT22;10676;50.848;3.272;2023-10-13T01:18:53;18.50;99.90
21035;DHT22;10676;50.848;3.272;2023-10-13T01:21:19;18.50;99.90
21035;DHT22;10676;50.848;3.272;2023-10-13T01:23:52;18.60;99.90
21035;DHT22;10676;50.848;3.272;2023-10-13T01:26:18;18.60;99.90
21035;DHT22;10676;50.848;3.272;2023-10-13T01:28:50;18.60;99.90
21035;DHT22;10676;50.848;3.272;2023-10-13T01:31:16;18.60;99.90
21035;DHT22;10676;50.848;3.272;2023-10-13T01:34:08;18.60;99.90
21035;DHT22;10676;50.848;3.272;2023-10-13T01:36:34;18.60;99.90
21035;DHT22;10676;50.848;3.272;2023-10-13T01:39:01;18.60;99.90
21035;DHT22;10676;50.848;3.272;2023-10-13T01:41:27;18.60;99.90
21035;DHT22;10676;50.848;3.272;2023-10-13T01:43:54;18.60;99.90
21035;DHT22;10676;50.848;3.272;2023-10-13T01:46:22;18.60;99.90
21035;DHT22;10676;50.848;3.272;2023-10-13T01:48:48;18.60;99.90
21035;DHT22;10676;50.848;3.272;2023-10-13T01:51:14;18.60;99.90
21035;DHT22;10676;50.848;3.272;2023-10-13T01:53:40;18.60;99.90
21035;DHT22;10676;50.848;3.272;2023-10-13T01:56:09;18.60;99.90
21035;DHT22;10676;50.848;3.272;2023-10-13T01:58:39;18.60;99.90
21035;DHT22;10676;50.848;3.272;2023-10-13T02:01:08;18.60;99.90
21035;DHT22;10676;50.848;3.272;2023-10-13T02:03:35;18.70;99.90
21035;DHT22;10676;50.848;3.272;2023-10-13T02:06:06;18.70;99.90
21035;DHT22;10676;50.848;3.272;2023-10-13T02:08:35;18.70;99.90
21035;DHT22;10676;50.848;3.272;2023-10-13T02:11:05;18.80;99.90
21035;DHT22;10676;50.848;3.272;2023-10-13T02:13:32;18.80;99.90
21035;DHT22;10676;50.848;3.272;2023-10-13T02:15:58;18.80;99.90
21035;DHT22;10676;50.848;3.272;2023-10-13T02:18:28;18.90;99.90
21035;DHT22;10676;50.848;3.272;2023-10-13T02:21:07;18.90;99.90
21035;DHT22;10676;50.848;3.272;2023-10-13T02:23:41;19.00;99.90
21035;DHT22;10676;50.848;3.272;2023-10-13T02:26:09;19.00;99.90
21035;DHT22;10676;50.848;3.272;2023-10-13T02:28:40;19.00;99.90
21035;DHT22;10676;50.848;3.272;2023-10-13T02:31:06;19.10;99.90
21035;DHT22;10676;50.848;3.272;2023-10-13T02:33:33;19.10;99.90
21035;DHT22;10676;50.848;3.272;2023-10-13T02:36:01;19.10;99.90
21035;DHT22;10676;50.848;3.272;2023-10-13T02:38:32;19.10;99.90
21035;DHT22;10676;50.848;3.272;2023-10-13T02:41:20;19.10;99.90
21035;DHT22;10676;50.848;3.272;2023-10-13T02:43:54;19.20;99.90
21035;DHT22;10676;50.848;3.272;2023-10-13T02:46:20;19.20;99.90
21035;DHT22;10676;50.848;3.272;2023-10-13T02:48:51;19.20;99.90
21035;DHT22;10676;50.848;3.272;2023-10-13T02:51:20;19.20;99.90
21035;DHT22;10676;50.848;3.272;2023-10-13T02:53:51;19.20;99.90
21035;DHT22;10676;50.848;3.272;2023-10-13T02:56:18;19.20;99.90
21035;DHT22;10676;50.848;3.272;2023-10-13T02:58:52;19.20;99.90
21035;DHT22;10676;50.848;3.272;2023-10-13T03:01:38;19.20;99.90
21035;DHT22;10676;50.848;3.272;2023-10-13T03:04:04;19.20;99.90
21035;DHT22;10676;50.848;3.272;2023-10-13T03:06:35;19.20;99.90
21035;DHT22;10676;50.848;3.272;2023-10-13T03:09:10;19.20;99.90
21035;DHT22;10676;50.848;3.272;2023-10-13T03:11:49;19.10;99.90
21035;DHT22;10676;50.848;3.272;2023-10-13T03:14:22;19.20;99.90
21035;DHT22;10676;50.848;3.272;2023-10-13T03:17:02;19.20;99.90
21035;DHT22;10676;50.848;3.272;2023-10-13T03:19:30;19.20;99.90
21035;DHT22;10676;50.848;3.272;2023-10-13T03:22:03;19.20;99.90
21035;DHT22;10676;50.848;3.272;2023-10-13T03:24:36;19.20;99.90
21035;DHT22;10676;50.848;3.272;2023-10-13T03:27:05;19.20;99.90
21035;DHT22;10676;50.848;3.272;2023-10-13T03:29:38;19.20;99.90
21035;DHT22;10676;50.848;3.272;2023-10-13T03:32:14;19.10;99.90
21035;DHT22;10676;50.848;3.272;2023-10-13T03:34:44;19.10;99.90
21035;DHT22;10676;50.848;3.272;2023-10-13T03:37:22;19.10;99.90
21035;DHT22;10676;50.848;3.272;2023-10-13T03:40:10;19.10;99.90
21035;DHT22;10676;50.848;3.272;2023-10-13T03:42:52;19.10;99.90
21035;DHT22;10676;50.848;3.272;2023-10-13T03:45:49;19.10;99.90
21035;DHT22;10676;50.848;3.272;2023-10-13T03:48:26;19.10;99.90
21035;DHT22;10676;50.848;3.272;2023-10-13T03:50:57;19.10;99.90
21035;DHT22;10676;50.848;3.272;2023-10-13T03:53:30;19.10;99.90
21035;DHT22;10676;50.848;3.272;2023-10-13T03:56:02;19.10;99.90
21035;DHT22;10676;50.848;3.272;2023-10-13T03:58:36;19.10;99.90
21035;DHT22;10676;50.848;3.272;2023-10-13T04:01:04;19.10;99.90
21035;DHT22;10676;50.848;3.272;2023-10-13T04:03:31;19.10;99.90
21035;DHT22;10676;50.848;3.272;2023-10-13T04:06:01;19.10;99.90
21035;DHT22;10676;50.848;3.272;2023-10-13T04:08:32;19.10;99.90
21035;DHT22;10676;50.848;3.272;2023-10-13T04:11:13;19.10;99.90
21035;DHT22;10676;50.848;3.272;2023-10-13T04:13:57;19.10;99.90
21035;DHT22;10676;50.848;3.272;2023-10-13T04:16:41;19.10;99.90
21035;DHT22;10676;50.848;3.272;2023-10-13T04:19:19;19.00;99.90
21035;DHT22;10676;50.848;3.272;2023-10-13T04:21:51;19.00;99.90
21035;DHT22;10676;50.848;3.272;2023-10-13T04:24:25;19.00;99.90
21035;DHT22;10676;50.848;3.272;2023-10-13T04:27:02;19.00;99.90
21035;DHT22;10676;50.848;3.272;2023-10-13T04:29:38;18.90;99.90
21035;DHT22;10676;50.848;3.272;2023-10-13T04:32:13;18.90;99.90
21035;DHT22;10676;50.848;3.272;2023-10-13T04:34:43;18.90;99.90
21035;DHT22;10676;50.848;3.272;2023-10-13T04:37:12;18.90;99.90
21035;DHT22;10676;50.848;3.272;2023-10-13T04:39:58;18.80;99.90
21035;DHT22;10676;50.848;3.272;2023-10-13T04:42:37;18.80;99.90
21035;DHT22;10676;50.848;3.272;2023-10-13T04:45:16;18.80;99.90
21035;DHT22;10676;50.848;3.272;2023-10-13T04:48:02;18.80;99.90
21035;DHT22;10676;50.848;3.272;2023-10-13T04:50:58;18.80;99.90
21035;DHT22;10676;50.848;3.272;2023-10-13T04:53:44;18.80;99.90
21035;DHT22;10676;50.848;3.272;2023-10-13T04:56:28;18.70;99.90
21035;DHT22;10676;50.848;3.272;2023-10-13T04:59:12;18.70;99.90
21035;DHT22;10676;50.848;3.272;2023-10-13T05:01:43;18.70;99.90
21035;DHT22;10676;50.848;3.272;2023-10-13T05:04:28;18.70;99.90
21035;DHT22;10676;50.848;3.272;2023-10-13T05:07:04;18.80;99.90
21035;DHT22;10676;50.848;3.272;2023-10-13T05:09:49;18.80;99.90
21035;DHT22;10676;50.848;3.272;2023-10-13T05:12:33;18.80;99.90
21035;DHT22;10676;50.848;3.272;2023-10-13T05:15:19;18.80;99.90
21035;DHT22;10676;50.848;3.272;2023-10-13T05:18:04;18.80;99.90
21035;DHT22;10676;50.848;3.272;2023-10-13T05:20:55;18.80;99.90
21035;DHT22;10676;50.848;3.272;2023-10-13T05:23:39;18.90;99.90
21035;DHT22;10676;50.848;3.272;2023-10-13T05:26:23;18.90;99.90
21035;DHT22;10676;50.848;3.272;2023-10-13T05:29:07;18.90;99.90
21035;DHT22;10676;50.848;3.272;2023-10-13T05:31:51;18.90;99.90
21035;DHT22;10676;50.848;3.272;2023-10-13T05:34:35;19.00;99.90
21035;DHT22;10676;50.848;3.272;2023-10-13T05:37:22;19.00;99.90
21035;DHT22;10676;50.848;3.272;2023-10-13T05:40:07;18.90;99.90
21035;DHT22;10676;50.848;3.272;2023-10-13T05:42:51;18.90;99.90
21035;DHT22;10676;50.848;3.272;2023-10-13T05:45:35;19.00;99.90
21035;DHT22;10676;50.848;3.272;2023-10-13T05:48:19;18.90;99.90
21035;DHT22;10676;50.848;3.272;2023-10-13T05:51:00;18.90;99.90
21035;DHT22;10676;50.848;3.272;2023-10-13T05:53:44;18.90;99.90
21035;DHT22;10676;50.848;3.272;2023-10-13T05:56:28;18.90;99.90
21035;DHT22;10676;50.848;3.272;2023-10-13T05:59:13;18.90;99.90
21035;DHT22;10676;50.848;3.272;2023-10-13T06:01:57;18.90;99.90
21035;DHT22;10676;50.848;3.272;2023-10-13T06:04:41;18.90;99.90
21035;DHT22;10676;50.848;3.272;2023-10-13T06:07:25;18.90;99.90
21035;DHT22;10676;50.848;3.272;2023-10-13T06:10:09;18.80;99.90
21035;DHT22;10676;50.848;3.272;2023-10-13T06:12:53;18.90;99.90
21035;DHT22;10676;50.848;3.272;2023-10-13T06:15:37;18.90;99.90
21035;DHT22;10676;50.848;3.272;2023-10-13T06:18:22;18.90;99.90
21035;DHT22;10676;50.848;3.272;2023-10-13T06:21:06;18.90;99.90
21035;DHT22;10676;50.848;3.272;2023-10-13T06:23:50;18.90;99.90
21035;DHT22;10676;50.848;3.272;2023-10-13T06:26:34;19.00;99.90
21035;DHT22;10676;50.848;3.272;2023-10-13T06:29:18;19.00;99.90
21035;DHT22;10676;50.848;3.272;2023-10-13T06:31:45;19.10;99.90
21035;DHT22;10676;50.848;3.272;2023-10-13T06:34:11;19.10;99.90
21035;DHT22;10676;50.848;3.272;2023-10-13T06:36:41;19.10;99.90
21035;DHT22;10676;50.848;3.272;2023-10-13T06:39:08;19.20;99.90
21035;DHT22;10676;50.848;3.272;2023-10-13T06:41:52;19.20;99.90
21035;DHT22;10676;50.848;3.272;2023-10-13T06:45:56;19.30;99.90
21035;DHT22;10676;50.848;3.272;2023-10-13T06:48:28;19.40;99.90
21035;DHT22;10676;50.848;3.272;2023-10-13T06:51:02;19.40;99.90
21035;DHT22;10676;50.848;3.272;2023-10-13T06:53:45;19.50;99.90
21035;DHT22;10676;50.848;3.272;2023-10-13T06:56:15;19.60;99.90
21035;DHT22;10676;50.848;3.272;2023-10-13T06:58:51;19.60;99.90
21035;DHT22;10676;50.848;3.272;2023-10-13T07:01:17;19.70;99.90
21035;DHT22;10676;50.848;3.272;2023-10-13T07:03:48;19.70;99.90
21035;DHT22;10676;50.848;3.272;2023-10-13T07:06:26;19.80;99.90
21035;DHT22;10676;50.848;3.272;2023-10-13T07:08:52;19.90;99.90
21035;DHT22;10676;50.848;3.272;2023-10-13T07:11:25;19.90;99.90
21035;DHT22;10676;50.848;3.272;2023-10-13T07:14:03;20.00;99.90
21035;DHT22;10676;50.848;3.272;2023-10-13T07:17:02;20.00;99.90
21035;DHT22;10676;50.848;3.272;2023-10-13T07:19:30;20.10;99.90
21035;DHT22;10676;50.848;3.272;2023-10-13T07:21:57;20.20;99.90
21035;DHT22;10676;50.848;3.272;2023-10-13T07:24:45;20.30;99.90
21035;DHT22;10676;50.848;3.272;2023-10-13T07:27:15;20.30;99.90
21035;DHT22;10676;50.848;3.272;2023-10-13T07:29:51;20.40;99.90
21035;DHT22;10676;50.848;3.272;2023-10-13T07:32:36;20.50;99.90
21035;DHT22;10676;50.848;3.272;2023-10-13T07:35:01;20.60;99.90
21035;DHT22;10676;50.848;3.272;2023-10-13T07:37:32;20.60;99.90
21035;DHT22;10676;50.848;3.272;2023-10-13T07:39:58;20.70;99.90
21035;DHT22;10676;50.848;3.272;2023-10-13T07:42:25;20.90;99.90
21035;DHT22;10676;50.848;3.272;2023-10-13T07:44:58;21.00;99.90
21035;DHT22;10676;50.848;3.272;2023-10-13T07:47:23;21.40;99.90
21035;DHT22;10676;50.848;3.272;2023-10-13T07:49:52;21.90;99.90
21035;DHT22;10676;50.848;3.272;2023-10-13T07:52:17;22.20;99.90
21035;DHT22;10676;50.848;3.272;2023-10-13T07:54:50;22.30;99.90
21035;DHT22;10676;50.848;3.272;2023-10-13T07:57:29;22.30;99.90
21035;DHT22;10676;50.848;3.272;2023-10-13T07:59:57;22.30;99.90
21035;DHT22;10676;50.848;3.272;2023-10-13T08:02:36;22.20;99.90
21035;DHT22;10676;50.848;3.272;2023-10-13T08:05:14;22.20;99.90
21035;DHT22;10676;50.848;3.272;2023-10-13T08:07:50;22.10;99.90
21035;DHT22;10676;50.848;3.272;2023-10-13T08:10:17;22.00;99.90
21035;DHT22;10676;50.848;3.272;2023-10-13T08:12:43;22.00;99.90
21035;DHT22;10676;50.848;3.272;2023-10-13T08:15:10;22.00;99.90
21035;DHT22;10676;50.848;3.272;2023-10-13T08:17:47;22.00;99.90
21035;DHT22;10676;50.848;3.272;2023-10-13T08:20:13;22.00;99.90
21035;DHT22;10676;50.848;3.272;2023-10-13T08:22:42;22.00;99.90
21035;DHT22;10676;50.848;3.272;2023-10-13T08:25:12;22.00;99.90
21035;DHT22;10676;50.848;3.272;2023-10-13T08:27:50;22.10;99.90
21035;DHT22;10676;50.848;3.272;2023-10-13T08:30:35;22.10;99.90
21035;DHT22;10676;50.848;3.272;2023-10-13T08:33:16;22.20;99.90
21035;DHT22;10676;50.848;3.272;2023-10-13T08:35:43;22.30;99.90
21035;DHT22;10676;50.848;3.272;2023-10-13T08:38:20;22.30;99.90
21035;DHT22;10676;50.848;3.272;2023-10-13T08:40:59;22.20;99.90
21035;DHT22;10676;50.848;3.272;2023-10-13T08:43:42;22.20;99.90
21035;DHT22;10676;50.848;3.272;2023-10-13T08:46:10;22.30;99.90
21035;DHT22;10676;50.848;3.272;2023-10-13T08:48:52;22.40;99.90
21035;DHT22;10676;50.848;3.272;2023-10-13T08:51:19;22.40;99.90
21035;DHT22;10676;50.848;3.272;2023-10-13T08:54:06;22.40;99.90
21035;DHT22;10676;50.848;3.272;2023-10-13T08:56:45;22.40;99.90
21035;DHT22;10676;50.848;3.272;2023-10-13T08:59:34;22.40;99.90
21035;DHT22;10676;50.848;3.272;2023-10-13T09:02:22;22.40;99.90
21035;DHT22;10676;50.848;3.272;2023-10-13T09:05:09;22.30;99.90
21035;DHT22;10676;50.848;3.272;2023-10-13T09:07:55;22.30;99.90
21035;DHT22;10676;50.848;3.272;2023-10-13T09:10:23;22.30;99.90
21035;DHT22;10676;50.848;3.272;2023-10-13T09:13:15;22.40;99.90
21035;DHT22;10676;50.848;3.272;2023-10-13T09:15:46;22.40;99.90
21035;DHT22;10676;50.848;3.272;2023-10-13T09:18:27;22.50;99.90
21035;DHT22;10676;50.848;3.272;2023-10-13T09:21:12;22.50;99.90
21035;DHT22;10676;50.848;3.272;2023-10-13T09:24:12;22.60;99.90
21035;DHT22;10676;50.848;3.272;2023-10-13T09:26:48;22.60;99.90
21035;DHT22;10676;50.848;3.272;2023-10-13T09:29:19;22.60;99.90
21035;DHT22;10676;50.848;3.272;2023-10-13T09:32:07;22.60;99.90
21035;DHT22;10676;50.848;3.272;2023-10-13T09:34:37;22.70;99.90
21035;DHT22;10676;50.848;3.272;2023-10-13T09:37:06;22.90;99.90
21035;DHT22;10676;50.848;3.272;2023-10-13T09:39:32;23.20;99.90
21035;DHT22;10676;50.848;3.272;2023-10-13T09:42:21;23.30;99.90
21035;DHT22;10676;50.848;3.272;2023-10-13T09:44:49;23.30;99.90
21035;DHT22;10676;50.848;3.272;2023-10-13T09:47:22;23.20;99.90
21035;DHT22;10676;50.848;3.272;2023-10-13T09:49:59;23.00;99.90
21035;DHT22;10676;50.848;3.272;2023-10-13T09:52:31;22.90;99.90
21035;DHT22;10676;50.848;3.272;2023-10-13T09:57:47;22.70;99.90
21035;DHT22;10676;50.848;3.272;2023-10-13T10:00:19;22.60;99.90
21035;DHT22;10676;50.848;3.272;2023-10-13T10:03:12;22.50;99.90
21035;DHT22;10676;50.848;3.272;2023-10-13T10:05:55;22.50;99.90
21035;DHT22;10676;50.848;3.272;2023-10-13T10:08:34;22.40;99.90
21035;DHT22;10676;50.848;3.272;2023-10-13T10:16:16;22.60;99.90
21035;DHT22;10676;50.848;3.272;2023-10-13T10:18:45;22.60;99.90
21035;DHT22;10676;50.848;3.272;2023-10-13T10:21:11;22.70;99.90
21035;DHT22;10676;50.848;3.272;2023-10-13T10:23:37;22.80;99.90
21035;DHT22;10676;50.848;3.272;2023-10-13T10:26:15;22.80;99.90
21035;DHT22;10676;50.848;3.272;2023-10-13T10:28:50;22.90;99.90
21035;DHT22;10676;50.848;3.272;2023-10-13T10:31:16;23.00;99.90
21035;DHT22;10676;50.848;3.272;2023-10-13T10:33:45;23.10;99.90
21035;DHT22;10676;50.848;3.272;2023-10-13T10:36:28;23.30;99.90
21035;DHT22;10676;50.848;3.272;2023-10-13T10:38:54;23.40;99.90
21035;DHT22;10676;50.848;3.272;2023-10-13T10:41:30;23.60;99.90
21035;DHT22;10676;50.848;3.272;2023-10-13T10:44:10;23.80;99.90
21035;DHT22;10676;50.848;3.272;2023-10-13T10:46:41;23.90;99.90
21035;DHT22;10676;50.848;3.272;2023-10-13T10:49:18;24.00;99.90
21035;DHT22;10676;50.848;3.272;2023-10-13T10:51:58;24.10;99.90
21035;DHT22;10676;50.848;3.272;2023-10-13T10:54:27;24.20;99.90
21035;DHT22;10676;50.848;3.272;2023-10-13T10:56:58;24.30;99.90
21035;DHT22;10676;50.848;3.272;2023-10-13T10:59:39;24.50;99.90
21035;DHT22;10676;50.848;3.272;2023-10-13T11:02:05;24.70;99.90
21035;DHT22;10676;50.848;3.272;2023-10-13T11:04:33;24.90;99.90
21035;DHT22;10676;50.848;3.272;2023-10-13T11:07:07;25.00;99.90
21035;DHT22;10676;50.848;3.272;2023-10-13T11:09:35;25.30;99.90
21035;DHT22;10676;50.848;3.272;2023-10-13T11:12:14;25.50;99.90
21035;DHT22;10676;50.848;3.272;2023-10-13T11:14:41;25.60;99.90
21035;DHT22;10676;50.848;3.272;2023-10-13T11:17:07;25.80;99.90
21035;DHT22;10676;50.848;3.272;2023-10-13T11:19:43;25.90;99.90
21035;DHT22;10676;50.848;3.272;2023-10-13T11:22:13;26.00;99.90
21035;DHT22;10676;50.848;3.272;2023-10-13T11:25:02;26.10;99.90
21035;DHT22;10676;50.848;3.272;2023-10-13T11:27:35;26.10;99.90
21035;DHT22;10676;50.848;3.272;2023-10-13T11:30:23;26.00;99.90
21035;DHT22;10676;50.848;3.272;2023-10-13T11:33:01;25.90;99.90
21035;DHT22;10676;50.848;3.272;2023-10-13T11:35:35;25.70;99.90
21035;DHT22;10676;50.848;3.272;2023-10-13T11:40:57;25.50;99.90
21035;DHT22;10676;50.848;3.272;2023-10-13T11:43:50;25.40;99.90
21035;DHT22;10676;50.848;3.272;2023-10-13T11:46:21;25.20;99.90
21035;DHT22;10676;50.848;3.272;2023-10-13T11:49:03;25.20;99.90
21035;DHT22;10676;50.848;3.272;2023-10-13T11:51:52;25.00;99.90
21035;DHT22;10676;50.848;3.272;2023-10-13T11:54:19;24.90;99.90
21035;DHT22;10676;50.848;3.272;2023-10-13T11:56:46;24.90;99.90
21035;DHT22;10676;50.848;3.272;2023-10-13T11:59:11;24.90;99.90
21035;DHT22;10676;50.848;3.272;2023-10-13T12:01:47;25.00;99.90
21035;DHT22;10676;50.848;3.272;2023-10-13T12:04:31;25.10;99.90
21035;DHT22;10676;50.848;3.272;2023-10-13T12:07:09;25.20;99.90
21035;DHT22;10676;50.848;3.272;2023-10-13T12:09:55;25.40;99.90
21035;DHT22;10676;50.848;3.272;2023-10-13T12:12:25;25.50;99.90
21035;DHT22;10676;50.848;3.272;2023-10-13T12:14:51;25.60;99.90
21035;DHT22;10676;50.848;3.272;2023-10-13T12:17:28;25.60;99.90
21035;DHT22;10676;50.848;3.272;2023-10-13T12:20:00;25.70;99.90
21035;DHT22;10676;50.848;3.272;2023-10-13T12:22:26;25.70;99.90
21035;DHT22;10676;50.848;3.272;2023-10-13T12:25:01;25.60;99.90
21035;DHT22;10676;50.848;3.272;2023-10-13T12:27:30;25.60;99.90
21035;DHT22;10676;50.848;3.272;2023-10-13T12:30:11;25.40;99.90
21035;DHT22;10676;50.848;3.272;2023-10-13T12:32:39;25.10;99.90
21035;DHT22;10676;50.848;3.272;2023-10-13T12:35:10;24.80;99.90
21035;DHT22;10676;50.848;3.272;2023-10-13T12:37:36;24.60;99.90
21035;DHT22;10676;50.848;3.272;2023-10-13T12:40:06;24.30;99.90
21035;DHT22;10676;50.848;3.272;2023-10-13T12:42:51;24.10;99.90
21035;DHT22;10676;50.848;3.272;2023-10-13T12:45:39;24.00;99.90
21035;DHT22;10676;50.848;3.272;2023-10-13T12:48:23;23.90;99.90
21035;DHT22;10676;50.848;3.272;2023-10-13T12:51:08;23.90;99.90
21035;DHT22;10676;50.848;3.272;2023-10-13T12:53:53;23.90;99.90
21035;DHT22;10676;50.848;3.272;2023-10-13T12:56:20;24.00;99.90
21035;DHT22;10676;50.848;3.272;2023-10-13T12:58:52;24.10;99.90
21035;DHT22;10676;50.848;3.272;2023-10-13T13:01:18;24.10;99.90
21035;DHT22;10676;50.848;3.272;2023-10-13T13:03:46;24.10;99.90
21035;DHT22;10676;50.848;3.272;2023-10-13T13:06:19;24.10;99.90
21035;DHT22;10676;50.848;3.272;2023-10-13T13:11:17;24.30;99.90
21035;DHT22;10676;50.848;3.272;2023-10-13T13:13:43;24.40;99.90
21035;DHT22;10676;50.848;3.272;2023-10-13T13:16:12;24.50;99.90
21035;DHT22;10676;50.848;3.272;2023-10-13T13:18:38;24.70;99.90
21035;DHT22;10676;50.848;3.272;2023-10-13T13:21:04;24.90;99.90
21035;DHT22;10676;50.848;3.272;2023-10-13T13:23:32;25.00;99.90
21035;DHT22;10676;50.848;3.272;2023-10-13T13:26:00;25.00;99.90
21035;DHT22;10676;50.848;3.272;2023-10-13T13:28:26;25.00;99.90
21035;DHT22;10676;50.848;3.272;2023-10-13T13:30:55;25.00;99.90
21035;DHT22;10676;50.848;3.272;2023-10-13T13:33:20;24.80;99.90
21035;DHT22;10676;50.848;3.272;2023-10-13T13:35:54;24.70;99.90
21035;DHT22;10676;50.848;3.272;2023-10-13T13:38:20;24.60;99.90
21035;DHT22;10676;50.848;3.272;2023-10-13T13:40:53;24.30;99.90
21035;DHT22;10676;50.848;3.272;2023-10-13T13:43:22;24.20;99.90
21035;DHT22;10676;50.848;3.272;2023-10-13T13:46:05;24.10;99.90
21035;DHT22;10676;50.848;3.272;2023-10-13T13:48:38;24.00;99.90
21035;DHT22;10676;50.848;3.272;2023-10-13T13:51:05;23.90;99.90
21035;DHT22;10676;50.848;3.272;2023-10-13T13:53:38;23.90;99.90
21035;DHT22;10676;50.848;3.272;2023-10-13T13:56:08;23.90;99.90
21035;DHT22;10676;50.848;3.272;2023-10-13T13:58:33;23.80;99.90
21035;DHT22;10676;50.848;3.272;2023-10-13T14:01:00;23.70;99.90
21035;DHT22;10676;50.848;3.272;2023-10-13T14:03:26;23.80;99.90
21035;DHT22;10676;50.848;3.272;2023-10-13T14:06:01;23.80;99.90
21035;DHT22;10676;50.848;3.272;2023-10-13T14:08:28;23.70;99.90
21035;DHT22;10676;50.848;3.272;2023-10-13T14:10:55;23.70;99.90
21035;DHT22;10676;50.848;3.272;2023-10-13T14:13:47;23.60;99.90
21035;DHT22;10676;50.848;3.272;2023-10-13T14:16:20;23.60;99.90
21035;DHT22;10676;50.848;3.272;2023-10-13T14:18:51;23.50;99.90
21035;DHT22;10676;50.848;3.272;2023-10-13T14:21:17;23.30;99.90
21035;DHT22;10676;50.848;3.272;2023-10-13T14:23:48;23.00;99.90
21035;DHT22;10676;50.848;3.272;2023-10-13T14:26:18;22.90;99.90
21035;DHT22;10676;50.848;3.272;2023-10-13T14:28:47;22.70;99.90
21035;DHT22;10676;50.848;3.272;2023-10-13T14:31:26;22.60;99.90
21035;DHT22;10676;50.848;3.272;2023-10-13T14:33:52;22.60;99.90
21035;DHT22;10676;50.848;3.272;2023-10-13T14:36:18;22.60;99.90
21035;DHT22;10676;50.848;3.272;2023-10-13T14:38:46;22.70;99.90
21035;DHT22;10676;50.848;3.272;2023-10-13T14:41:18;22.80;99.90
21035;DHT22;10676;50.848;3.272;2023-10-13T14:43:44;22.90;99.90
21035;DHT22;10676;50.848;3.272;2023-10-13T14:46:19;23.10;99.90
21035;DHT22;10676;50.848;3.272;2023-10-13T14:48:51;23.20;99.90
21035;DHT22;10676;50.848;3.272;2023-10-13T14:51:17;23.30;99.90
21035;DHT22;10676;50.848;3.272;2023-10-13T14:53:44;23.30;99.90
21035;DHT22;10676;50.848;3.272;2023-10-13T14:56:19;23.40;99.90
21035;DHT22;10676;50.848;3.272;2023-10-13T14:58:44;23.50;99.90
21035;DHT22;10676;50.848;3.272;2023-10-13T15:01:11;23.50;99.90
21035;DHT22;10676;50.848;3.272;2023-10-13T15:03:43;23.60;99.90
21035;DHT22;10676;50.848;3.272;2023-10-13T15:06:26;23.70;99.90
21035;DHT22;10676;50.848;3.272;2023-10-13T15:08:56;23.80;99.90
21035;DHT22;10676;50.848;3.272;2023-10-13T15:11:23;23.90;99.90
21035;DHT22;10676;50.848;3.272;2023-10-13T15:14:05;24.00;99.90
21035;DHT22;10676;50.848;3.272;2023-10-13T15:16:33;24.00;99.90
21035;DHT22;10676;50.848;3.272;2023-10-13T15:19:00;24.00;99.90
21035;DHT22;10676;50.848;3.272;2023-10-13T15:21:27;24.00;99.90
21035;DHT22;10676;50.848;3.272;2023-10-13T15:24:16;24.00;99.90
21035;DHT22;10676;50.848;3.272;2023-10-13T15:26:46;23.90;99.90
21035;DHT22;10676;50.848;3.272;2023-10-13T15:29:18;23.80;99.90
21035;DHT22;10676;50.848;3.272;2023-10-13T15:31:51;23.70;99.90
21035;DHT22;10676;50.848;3.272;2023-10-13T15:34:25;23.70;99.90
21035;DHT22;10676;50.848;3.272;2023-10-13T15:36:55;23.60;99.90
21035;DHT22;10676;50.848;3.272;2023-10-13T15:39:22;23.60;99.90
21035;DHT22;10676;50.848;3.272;2023-10-13T15:41:57;23.60;99.90
21035;DHT22;10676;50.848;3.272;2023-10-13T15:44:27;23.50;99.90
21035;DHT22;10676;50.848;3.272;2023-10-13T15:46:57;23.40;99.90
21035;DHT22;10676;50.848;3.272;2023-10-13T15:49:24;23.40;99.90
21035;DHT22;10676;50.848;3.272;2023-10-13T15:51:50;23.20;99.90
21035;DHT22;10676;50.848;3.272;2023-10-13T15:54:18;23.00;99.90
21035;DHT22;10676;50.848;3.272;2023-10-13T15:56:47;22.60;99.90
21035;DHT22;10676;50.848;3.272;2023-10-13T15:59:13;22.40;99.90
21035;DHT22;10676;50.848;3.272;2023-10-13T16:01:39;22.10;99.90
21035;DHT22;10676;50.848;3.272;2023-10-13T16:04:07;21.80;99.90
21035;DHT22;10676;50.848;3.272;2023-10-13T16:06:45;21.60;99.90
21035;DHT22;10676;50.848;3.272;2023-10-13T16:09:21;21.50;99.90
21035;DHT22;10676;50.848;3.272;2023-10-13T16:11:51;21.30;99.90
21035;DHT22;10676;50.848;3.272;2023-10-13T16:14:17;21.30;99.90
21035;DHT22;10676;50.848;3.272;2023-10-13T16:16:48;21.20;99.90
21035;DHT22;10676;50.848;3.272;2023-10-13T16:19:19;21.20;99.90
21035;DHT22;10676;50.848;3.272;2023-10-13T16:21:50;21.40;99.90
21035;DHT22;10676;50.848;3.272;2023-10-13T16:24:16;21.40;99.90
21035;DHT22;10676;50.848;3.272;2023-10-13T16:26:46;21.30;99.90